createdAt,value
2022-09-28T00:03:36.702Z,7.8
2022-09-28T00:05:37.918Z,7.8
2022-09-28T00:09:40.397Z,7.8
2022-09-28T00:11:41.648Z,7.8
2022-09-28T00:13:42.856Z,7.7
2022-09-28T00:15:47.388Z,7.7
2022-09-28T00:17:48.621Z,7.7
2022-09-28T00:19:49.881Z,7.7
2022-09-28T00:23:52.312Z,7.7
2022-09-28T00:25:53.564Z,7.7
2022-09-28T00:29:59.282Z,7.6
2022-09-28T00:32:00.653Z,7.6
2022-09-28T00:36:03.008Z,7.6
2022-09-28T00:38:04.203Z,7.6
2022-09-28T00:40:05.493Z,7.6
2022-09-28T00:42:06.687Z,7.6
2022-09-28T00:44:11.186Z,7.6
2022-09-28T00:46:12.833Z,7.5
2022-09-28T00:48:13.620Z,7.5
2022-09-28T00:50:42.053Z,7.5
2022-09-28T00:52:43.265Z,7.5
2022-09-28T00:54:44.508Z,7.5
2022-09-28T00:56:49.027Z,7.5
2022-09-28T00:58:50.253Z,7.5
2022-09-28T01:00:51.544Z,7.5
2022-09-28T01:02:52.737Z,7.5
2022-09-28T01:08:57.934Z,7.4
2022-09-28T01:11:02.391Z,7.4
2022-09-28T01:13:03.643Z,7.4
2022-09-28T01:17:06.099Z,7.4
2022-09-28T01:19:07.312Z,7.5
2022-09-28T01:21:08.540Z,7.5
2022-09-28T01:23:09.790Z,7.4
2022-09-28T01:25:14.270Z,7.4
2022-09-28T01:27:15.501Z,7.4
2022-09-28T01:29:16.864Z,7.4
2022-09-28T01:31:18.072Z,7.4
2022-09-28T01:33:19.204Z,7.4
2022-09-28T01:35:20.417Z,7.4
2022-09-28T01:37:21.649Z,7.4
2022-09-28T01:39:26.170Z,7.4
2022-09-28T01:41:27.371Z,7.4
2022-09-28T01:43:28.600Z,7.4
2022-09-28T01:44:30.847Z,7.4
2022-09-28T01:46:32.102Z,7.4
2022-09-28T01:48:33.314Z,7.4
2022-09-28T01:54:40.302Z,7.4
2022-09-28T01:56:41.533Z,7.4
2022-09-28T01:58:42.821Z,7.5
2022-09-28T02:00:44.070Z,7.4
2022-09-28T02:02:45.221Z,7.4
2022-09-28T02:04:46.485Z,7.4
2022-09-28T02:06:50.997Z,7.4
2022-09-28T02:08:52.207Z,7.4
2022-09-28T02:10:53.438Z,7.4
2022-09-28T02:12:54.689Z,7.4
2022-09-28T02:14:55.937Z,7.5
2022-09-28T02:16:57.182Z,7.5
2022-09-28T02:18:58.421Z,7.5
2022-09-28T02:21:02.885Z,7.4
2022-09-28T02:23:04.133Z,7.4
2022-09-28T02:25:05.374Z,7.4
2022-09-28T02:27:06.615Z,7.4
2022-09-28T02:29:07.838Z,7.4
2022-09-28T02:31:09.147Z,7.4
2022-09-28T02:33:10.305Z,7.5
2022-09-28T02:35:14.803Z,7.4
2022-09-28T02:37:16.020Z,7.4
2022-09-28T02:39:17.366Z,7.4
2022-09-28T02:40:19.561Z,7.4
2022-09-28T02:42:20.747Z,7.4
2022-09-28T02:46:23.208Z,7.5
2022-09-28T02:48:43.244Z,7.5
2022-09-28T02:50:28.927Z,7.5
2022-09-28T02:52:30.189Z,7.5
2022-09-28T02:54:31.418Z,7.5
2022-09-28T02:56:32.638Z,7.5
2022-09-28T02:58:33.852Z,7.5
2022-09-28T03:00:35.216Z,7.5
2022-09-28T03:02:39.594Z,7.5
2022-09-28T03:04:40.805Z,7.5
2022-09-28T03:06:42.053Z,7.5
2022-09-28T03:08:43.268Z,7.6
2022-09-28T03:10:44.547Z,7.6
2022-09-28T03:12:45.752Z,7.6
2022-09-28T03:14:46.975Z,7.6
2022-09-28T03:16:51.478Z,7.6
2022-09-28T03:18:52.682Z,7.6
2022-09-28T03:20:53.912Z,7.6
2022-09-28T03:23:22.911Z,7.6
2022-09-28T03:24:56.376Z,7.6
2022-09-28T03:26:57.602Z,7.6
2022-09-28T03:28:58.859Z,7.6
2022-09-28T03:31:03.406Z,7.6
2022-09-28T03:33:04.571Z,7.6
2022-09-28T03:35:05.814Z,7.6
2022-09-28T03:36:08.059Z,7.6
2022-09-28T03:38:09.297Z,7.6
2022-09-28T03:40:10.523Z,7.6
2022-09-28T03:42:11.732Z,7.6
2022-09-28T03:44:16.224Z,7.6
2022-09-28T03:46:17.567Z,7.6
2022-09-28T03:48:23.189Z,7.6
2022-09-28T03:50:19.917Z,7.5
2022-09-28T03:52:21.172Z,7.5
2022-09-28T03:54:22.470Z,7.6
2022-09-28T03:56:23.615Z,7.6
2022-09-28T03:58:28.110Z,7.6
2022-09-28T04:00:29.341Z,7.6
2022-09-28T04:04:31.792Z,7.6
2022-09-28T04:06:33.040Z,7.6
2022-09-28T04:08:34.253Z,7.6
2022-09-28T04:10:35.479Z,7.6
2022-09-28T04:12:39.973Z,7.6
2022-09-28T04:14:41.200Z,7.6
2022-09-28T04:16:42.491Z,7.5
2022-09-28T04:18:43.662Z,7.5
2022-09-28T04:20:44.892Z,7.5
2022-09-28T04:22:46.114Z,7.4
2022-09-28T04:24:47.338Z,7.4
2022-09-28T04:28:53.082Z,7.3
2022-09-28T04:30:54.275Z,7.3
2022-09-28T04:33:22.734Z,7.3
2022-09-28T04:35:23.954Z,7.2
2022-09-28T04:37:25.201Z,7.2
2022-09-28T04:39:29.684Z,7.3
2022-09-28T04:41:30.946Z,7.3
2022-09-28T04:43:32.156Z,7.2
2022-09-28T04:45:33.619Z,7.2
2022-09-28T04:47:34.618Z,7.2
2022-09-28T04:49:35.886Z,7.2
2022-09-28T04:51:37.112Z,7.2
2022-09-28T04:53:41.599Z,7.1
2022-09-28T04:55:42.847Z,7.2
2022-09-28T04:57:44.056Z,7.2
2022-09-28T04:59:45.284Z,7.1
2022-09-28T05:01:46.349Z,7.1
2022-09-28T05:03:47.565Z,7.1
2022-09-28T05:05:48.848Z,7.1
2022-09-28T05:07:53.280Z,7.1
2022-09-28T05:09:54.535Z,7.1
2022-09-28T05:11:55.754Z,7.1
2022-09-28T05:13:57.004Z,7.1
2022-09-28T05:16:01.765Z,7.1
2022-09-28T05:17:59.471Z,7.1
2022-09-28T05:20:00.674Z,7.1
2022-09-28T05:22:05.156Z,7
2022-09-28T05:24:06.397Z,7
2022-09-28T05:26:07.601Z,7
2022-09-28T05:27:09.835Z,7
2022-09-28T05:31:12.302Z,7
2022-09-28T05:33:13.517Z,7
2022-09-28T05:35:18.000Z,6.9
2022-09-28T05:39:20.495Z,6.9
2022-09-28T05:41:21.711Z,6.9
2022-09-28T05:43:22.912Z,6.9
2022-09-28T05:45:24.160Z,6.9
2022-09-28T05:47:25.355Z,6.9
2022-09-28T05:51:31.067Z,6.9
2022-09-28T05:53:32.314Z,6.9
2022-09-28T05:55:33.619Z,6.9
2022-09-28T05:59:35.970Z,6.9
2022-09-28T06:01:37.254Z,6.9
2022-09-28T06:03:41.677Z,6.9
2022-09-28T06:05:42.888Z,7
2022-09-28T06:09:45.340Z,7
2022-09-28T06:11:46.552Z,6.9
2022-09-28T06:13:47.762Z,6.9
2022-09-28T06:15:49.009Z,6.9
2022-09-28T06:17:53.483Z,6.9
2022-09-28T06:19:54.761Z,6.9
2022-09-28T06:21:58.405Z,6.9
2022-09-28T06:24:59.425Z,6.9
2022-09-28T06:27:00.644Z,7
2022-09-28T06:29:01.895Z,7
2022-09-28T06:31:06.465Z,6.9
2022-09-28T06:33:07.606Z,6.9
2022-09-28T06:35:08.818Z,6.9
2022-09-28T06:37:10.031Z,6.9
2022-09-28T06:39:11.238Z,6.9
2022-09-28T06:41:12.470Z,6.9
2022-09-28T06:43:13.700Z,6.9
2022-09-28T06:45:18.154Z,7
2022-09-28T06:47:19.399Z,6.9
2022-09-28T06:49:20.623Z,7
2022-09-28T06:51:21.827Z,7.1
2022-09-28T06:53:23.062Z,7.1
2022-09-28T06:55:25.832Z,7.2
2022-09-28T06:57:27.015Z,7.2
2022-09-28T06:59:31.533Z,7.3
2022-09-28T07:01:32.914Z,7.4
2022-09-28T07:03:33.947Z,7.4
2022-09-28T07:05:35.170Z,7.4
2022-09-28T07:11:38.830Z,7.6
2022-09-28T07:15:44.562Z,7.6
2022-09-28T07:17:54.925Z,7.7
2022-09-28T07:18:48.024Z,7.7
2022-09-28T07:20:53.413Z,7.8
2022-09-28T07:22:50.503Z,7.8
2022-09-28T07:24:51.677Z,7.8
2022-09-28T07:26:56.185Z,7.9
2022-09-28T07:28:57.440Z,8
2022-09-28T07:30:58.699Z,8.1
2022-09-28T07:32:59.903Z,8.2
2022-09-28T07:35:01.136Z,8.3
2022-09-28T07:37:02.351Z,8.4
2022-09-28T07:39:03.614Z,8.5
2022-09-28T07:41:08.204Z,8.5
2022-09-28T07:43:09.345Z,8.6
2022-09-28T07:47:11.816Z,8.8
2022-09-28T07:49:13.204Z,8.9
2022-09-28T07:51:14.263Z,9.1
2022-09-28T07:59:22.449Z,9.5
2022-09-28T08:03:24.904Z,9.5
2022-09-28T08:09:31.852Z,9.8
2022-09-28T08:11:33.127Z,9.8
2022-09-28T08:13:34.352Z,9.9
2022-09-28T08:16:02.767Z,10
2022-09-28T08:20:05.251Z,10.2
2022-09-28T08:28:13.466Z,15.6
2022-09-28T08:32:15.960Z,17.6
2022-09-28T08:36:21.740Z,17.5
2022-09-28T08:38:22.992Z,16.8
2022-09-28T08:40:24.295Z,16.8
2022-09-28T08:42:25.462Z,17.5
2022-09-28T08:54:36.257Z,17.1
2022-09-28T08:56:37.496Z,17.9
2022-09-28T08:58:38.743Z,17.7
2022-09-28T09:00:39.887Z,17.8
2022-09-28T09:02:41.216Z,18.1
2022-09-28T09:04:45.436Z,16.7
2022-09-28T09:06:46.609Z,16.9
2022-09-28T09:08:47.747Z,18.6
2022-09-28T09:09:49.931Z,19.6
2022-09-28T09:13:52.206Z,19.4
2022-09-28T09:15:53.337Z,19.9
2022-09-28T09:17:57.652Z,19.9
2022-09-28T09:24:01.068Z,17.4
2022-09-28T09:26:02.209Z,18
2022-09-28T09:28:03.308Z,19.6
2022-09-28T09:30:04.433Z,19.9
2022-09-28T09:32:08.747Z,19.9
2022-09-28T09:34:09.902Z,20.1
2022-09-28T09:36:11.021Z,19.2
2022-09-28T09:38:12.150Z,18.5
2022-09-28T09:40:13.282Z,19.7
2022-09-28T09:42:14.397Z,20.8
2022-09-28T09:44:15.613Z,21.4
2022-09-28T09:46:19.869Z,18.7
2022-09-28T09:48:20.948Z,17.2
2022-09-28T09:50:22.058Z,19
2022-09-28T09:52:23.266Z,20
2022-09-28T09:54:24.303Z,20.2
2022-09-28T09:56:25.428Z,21
2022-09-28T09:58:26.537Z,19.7
2022-09-28T10:00:30.830Z,19.3
2022-09-28T10:02:32.044Z,19.2
2022-09-28T10:04:33.042Z,20.4
2022-09-28T10:05:35.209Z,21.3
2022-09-28T10:07:39.335Z,21.2
2022-09-28T10:09:37.420Z,21.1
2022-09-28T10:13:42.825Z,21
2022-09-28T10:17:45.021Z,21
2022-09-28T10:19:46.135Z,21.5
2022-09-28T10:21:47.237Z,21.6
2022-09-28T10:23:48.330Z,22
2022-09-28T10:25:49.472Z,20.4
2022-09-28T10:27:53.730Z,21.8
2022-09-28T10:29:54.839Z,21.5
2022-09-28T10:31:55.952Z,17.3
2022-09-28T10:33:57.034Z,18.7
2022-09-28T10:35:58.160Z,19.4
2022-09-28T10:37:59.229Z,20.4
2022-09-28T10:40:00.351Z,20.2
2022-09-28T10:44:05.710Z,16.9
2022-09-28T10:46:06.901Z,17.5
2022-09-28T10:48:07.936Z,16.3
2022-09-28T10:50:09.028Z,17.1
2022-09-28T10:52:10.141Z,16.1
2022-09-28T10:56:15.520Z,15.3
2022-09-28T10:58:16.625Z,15.2
2022-09-28T11:00:17.775Z,15.4
2022-09-28T11:01:19.925Z,15.8
2022-09-28T11:03:20.975Z,15.4
2022-09-28T11:09:30.508Z,14.8
2022-09-28T11:23:38.518Z,14.2
2022-09-28T11:25:39.636Z,14.3
2022-09-28T11:29:41.930Z,14.8
2022-09-28T11:33:44.134Z,15.2
2022-09-28T11:35:45.247Z,15.1
2022-09-28T11:37:49.561Z,15.3
2022-09-28T11:41:51.806Z,16
2022-09-28T11:43:52.930Z,16.1
2022-09-28T11:45:54.117Z,16.2
2022-09-28T11:47:55.174Z,15.9
2022-09-28T11:49:56.290Z,16.2
2022-09-28T11:52:00.612Z,16.6
2022-09-28T11:54:01.720Z,16.2
2022-09-28T11:56:07.941Z,15.8
2022-09-28T11:58:30.861Z,16.1
2022-09-28T12:00:31.978Z,16.2
2022-09-28T12:02:33.182Z,16
2022-09-28T12:04:37.452Z,15.9
2022-09-28T12:08:39.708Z,16
2022-09-28T12:10:45.293Z,15.7
2022-09-28T12:12:41.914Z,15.8
2022-09-28T12:14:43.032Z,15.4
2022-09-28T12:18:48.478Z,15.3
2022-09-28T12:20:49.595Z,15.2
2022-09-28T12:22:50.710Z,15.4
2022-09-28T12:24:51.847Z,15.2
2022-09-28T12:26:52.966Z,14.9
2022-09-28T12:28:54.101Z,14.7
2022-09-28T12:30:55.325Z,14.7
2022-09-28T12:32:59.548Z,15.2
2022-09-28T12:35:00.666Z,15.5
2022-09-28T12:43:05.180Z,14.8
2022-09-28T12:45:07.837Z,14.8
2022-09-28T12:52:16.600Z,14.6
2022-09-28T12:54:17.914Z,14.8
2022-09-28T12:56:21.478Z,15.3
2022-09-28T12:58:19.999Z,15.4
2022-09-28T13:00:24.303Z,15.6
2022-09-28T13:02:25.530Z,15.7
2022-09-28T13:04:26.595Z,15.6
2022-09-28T13:06:27.700Z,15.8
2022-09-28T13:08:28.839Z,16.1
2022-09-28T13:10:29.965Z,16.3
2022-09-28T13:12:31.085Z,16.5
2022-09-28T13:14:35.398Z,16.1
2022-09-28T13:16:36.538Z,16.2
2022-09-28T13:18:37.672Z,16.1
2022-09-28T13:20:38.815Z,15.9
2022-09-28T13:22:44.060Z,15.9
2022-09-28T13:24:41.076Z,15.9
2022-09-28T13:26:42.194Z,15.7
2022-09-28T13:28:46.484Z,15
2022-09-28T13:30:47.685Z,14.9
2022-09-28T13:32:48.741Z,15
2022-09-28T13:34:49.903Z,14.9
2022-09-28T13:38:52.168Z,14.8
2022-09-28T13:40:53.414Z,14.7
2022-09-28T13:42:57.621Z,14.4
2022-09-28T13:44:58.751Z,14.5
2022-09-28T13:46:59.864Z,14.5
2022-09-28T13:48:02.038Z,14.6
2022-09-28T13:50:03.202Z,14.5
2022-09-28T13:52:04.340Z,14.5
2022-09-28T13:54:05.468Z,14.6
2022-09-28T13:56:09.802Z,14.7
2022-09-28T13:58:10.896Z,14.7
2022-09-28T14:04:14.391Z,14.8
2022-09-28T14:08:16.597Z,14.8
2022-09-28T14:10:20.953Z,14.9
2022-09-28T14:16:24.322Z,14.8
2022-09-28T14:18:25.478Z,14.8
2022-09-28T14:20:26.604Z,14.8
2022-09-28T14:22:27.760Z,14.9
2022-09-28T14:26:33.208Z,14.7
2022-09-28T14:28:34.317Z,14.4
2022-09-28T14:30:35.469Z,14.4
2022-09-28T14:32:36.644Z,14.4
2022-09-28T14:34:37.769Z,14.5
2022-09-28T14:36:38.902Z,14.7
2022-09-28T14:38:43.235Z,14.7
2022-09-28T14:40:49.441Z,14.7
2022-09-28T14:42:45.577Z,14.5
2022-09-28T14:45:48.863Z,14.2
2022-09-28T14:47:49.978Z,14.1
2022-09-28T14:49:51.098Z,14.1
2022-09-28T14:51:55.415Z,14
2022-09-28T14:53:56.552Z,14
2022-09-28T14:55:57.684Z,14
2022-09-28T14:57:58.861Z,13.9
2022-09-28T15:00:00.001Z,13.8
2022-09-28T15:02:01.160Z,13.8
2022-09-28T15:04:02.390Z,13.8
2022-09-28T15:06:06.744Z,13.8
2022-09-28T15:10:09.007Z,13.9
2022-09-28T15:12:10.146Z,13.8
2022-09-28T15:16:12.531Z,13.8
2022-09-28T15:18:13.624Z,13.7
2022-09-28T15:22:19.190Z,13.7
2022-09-28T15:30:23.834Z,13.6
2022-09-28T15:32:24.987Z,13.5
2022-09-28T15:34:29.312Z,13.5
2022-09-28T15:36:30.444Z,13.4
2022-09-28T15:38:31.618Z,13.4
2022-09-28T15:40:59.771Z,13.4
2022-09-28T15:43:00.881Z,13.4
2022-09-28T15:47:06.461Z,13.3
2022-09-28T15:49:07.597Z,13.2
2022-09-28T15:51:08.737Z,13.2
2022-09-28T15:53:09.890Z,13.2
2022-09-28T15:55:11.045Z,13.2
2022-09-28T15:57:12.192Z,13.1
2022-09-28T15:59:13.358Z,13
2022-09-28T16:01:17.910Z,13
2022-09-28T16:03:18.928Z,13.1
2022-09-28T16:05:20.337Z,13
2022-09-28T16:07:21.228Z,13
2022-09-28T16:09:22.488Z,13
2022-09-28T16:11:23.741Z,13
2022-09-28T16:13:24.970Z,12.9
2022-09-28T16:15:29.357Z,12.8
2022-09-28T16:17:30.604Z,12.8
2022-09-28T16:19:31.843Z,12.8
2022-09-28T16:21:33.089Z,12.7
2022-09-28T16:23:34.338Z,12.7
2022-09-28T16:38:48.674Z,12.3
2022-09-28T16:40:50.005Z,12.3
2022-09-28T16:42:54.455Z,12.2
2022-09-28T16:44:55.689Z,12.2
2022-09-28T16:46:56.958Z,12.2
2022-09-28T16:48:58.189Z,12.1
2022-09-28T16:50:59.469Z,12
2022-09-28T16:53:00.710Z,12
2022-09-28T16:55:04.968Z,12
2022-09-28T16:57:06.503Z,11.9
2022-09-28T16:59:10.900Z,11.9
2022-09-28T17:01:09.034Z,11.8
2022-09-28T17:03:10.293Z,11.8
2022-09-28T17:05:11.485Z,11.7
2022-09-28T17:11:23.659Z,11.6
2022-09-28T17:13:19.781Z,11.6
2022-09-28T17:15:21.028Z,11.6
2022-09-28T17:17:22.270Z,11.5
2022-09-28T17:19:23.529Z,11.5
2022-09-28T17:21:24.784Z,11.5
2022-09-28T17:23:26.033Z,11.4
2022-09-28T17:25:30.550Z,11.4
2022-09-28T17:27:31.814Z,11.3
2022-09-28T17:29:33.049Z,11.3
2022-09-28T17:32:36.539Z,11.3
2022-09-28T17:38:43.565Z,11.2
2022-09-28T17:42:46.075Z,11.2
2022-09-28T17:48:49.815Z,11.1
2022-09-28T17:50:51.042Z,11
2022-09-28T17:52:55.554Z,11
2022-09-28T17:54:56.794Z,11
2022-09-28T17:56:58.051Z,11
2022-09-28T17:58:59.293Z,10.9
2022-09-28T18:01:00.573Z,11
2022-09-28T18:03:01.898Z,10.9
2022-09-28T18:05:03.081Z,10.9
2022-09-28T18:11:10.084Z,10.8
2022-09-28T18:13:11.353Z,10.7
2022-09-28T18:15:12.584Z,10.7
2022-09-28T18:21:19.600Z,10.6
2022-09-28T18:23:20.842Z,10.6
2022-09-28T18:25:22.099Z,10.5
2022-09-28T18:26:24.390Z,10.5
2022-09-28T18:28:25.615Z,10.5
2022-09-28T18:30:26.858Z,10.4
2022-09-28T18:32:28.116Z,10.4
2022-09-28T18:34:34.155Z,10.3
2022-09-28T18:36:35.397Z,10.3
2022-09-28T18:38:36.639Z,10.3
2022-09-28T18:40:37.941Z,10.2
2022-09-28T18:42:39.135Z,10.2
2022-09-28T18:44:40.385Z,10.2
2022-09-28T18:46:41.737Z,10.2
2022-09-28T18:48:46.166Z,10.2
2022-09-28T18:50:47.387Z,10.2
2022-09-28T18:52:48.645Z,10.2
2022-09-28T18:54:49.918Z,10.1
2022-09-28T18:56:51.150Z,10.1
2022-09-28T18:58:52.405Z,10.1
2022-09-28T19:01:00.923Z,10
2022-09-28T19:02:58.279Z,10
2022-09-28T19:04:59.408Z,10
2022-09-28T19:07:00.646Z,9.9
2022-09-28T19:09:01.930Z,9.9
2022-09-28T19:11:03.140Z,9.8
2022-09-28T19:15:05.657Z,9.8
2022-09-28T19:17:10.172Z,9.7
2022-09-28T19:23:41.023Z,9.6
2022-09-28T19:25:42.299Z,9.6
2022-09-28T19:27:43.535Z,9.6
2022-09-28T19:29:48.034Z,9.5
2022-09-28T19:33:50.563Z,9.5
2022-09-28T19:35:51.806Z,9.5
2022-09-28T19:37:53.069Z,9.4
2022-09-28T19:39:54.327Z,9.4
2022-09-28T19:44:00.118Z,9.3
2022-09-28T19:46:01.398Z,9.2
2022-09-28T19:48:02.599Z,9.2
2022-09-28T19:50:03.853Z,9.2
2022-09-28T19:52:14.435Z,9.2
2022-09-28T19:54:06.374Z,9.2
2022-09-28T19:56:07.633Z,9.2
2022-09-28T19:58:12.112Z,9.1
2022-09-28T20:00:13.359Z,9
2022-09-28T20:02:14.670Z,9
2022-09-28T20:04:15.879Z,9
2022-09-28T20:06:17.425Z,9
2022-09-28T20:08:18.359Z,8.9
2022-09-28T20:10:19.616Z,8.9
2022-09-28T20:12:24.115Z,8.8
2022-09-28T20:14:28.174Z,8.8
2022-09-28T20:16:26.598Z,8.8
2022-09-28T20:17:28.864Z,8.8
2022-09-28T20:25:37.126Z,8.8
2022-09-28T20:29:39.610Z,8.7
2022-09-28T20:37:44.588Z,8.7
2022-09-28T20:39:49.093Z,8.7
2022-09-28T20:41:50.341Z,8.7
2022-09-28T20:43:51.576Z,8.6
2022-09-28T20:45:52.885Z,8.6
2022-09-28T20:47:54.054Z,8.6
2022-09-28T20:49:55.297Z,8.6
2022-09-28T20:51:56.533Z,8.6
2022-09-28T20:54:01.039Z,8.5
2022-09-28T20:56:02.304Z,8.5
2022-09-28T20:58:03.535Z,8.5
2022-09-28T21:00:04.771Z,8.5
2022-09-28T21:02:06.009Z,8.5
2022-09-28T21:04:07.261Z,8.5
2022-09-28T21:06:12.126Z,8.5
2022-09-28T21:08:12.997Z,8.4
2022-09-28T21:10:14.220Z,8.4
2022-09-28T21:12:15.443Z,8.4
2022-09-28T21:13:17.703Z,8.3
2022-09-28T21:15:18.941Z,8.4
2022-09-28T21:17:20.194Z,8.3
2022-09-28T21:21:25.920Z,8.3
2022-09-28T21:23:27.154Z,8.3
2022-09-28T21:25:28.402Z,8.3
2022-09-28T21:27:29.647Z,8.2
2022-09-28T21:29:30.860Z,8.2
2022-09-28T21:31:32.114Z,8.3
2022-09-28T21:37:39.076Z,8.2
2022-09-28T21:39:40.305Z,8.2
2022-09-28T21:41:41.536Z,8.2
2022-09-28T21:43:42.778Z,8.1
2022-09-28T21:47:45.262Z,8.1
2022-09-28T21:49:49.753Z,8.1
2022-09-28T21:53:52.220Z,8.1
2022-09-28T21:57:54.696Z,8
2022-09-28T21:59:55.928Z,8
2022-09-28T22:01:57.204Z,8
2022-09-28T22:04:01.644Z,8
2022-09-28T22:06:02.874Z,8
2022-09-28T22:08:04.088Z,8
2022-09-28T22:09:06.347Z,8
2022-09-28T22:11:07.603Z,8
2022-09-28T22:13:08.839Z,8
2022-09-28T22:15:10.100Z,8.1
2022-09-28T22:17:14.591Z,8
2022-09-28T22:23:18.271Z,8
2022-09-28T22:25:19.514Z,8.1
2022-09-28T22:33:27.688Z,8
2022-09-28T22:35:28.910Z,8
2022-09-28T22:37:30.135Z,8
2022-09-28T22:39:34.316Z,7.9
2022-09-28T22:41:32.591Z,7.9
2022-09-28T22:43:33.827Z,7.9
2022-09-28T22:49:40.772Z,7.9
2022-09-28T22:51:42.033Z,7.9
2022-09-28T22:53:43.264Z,7.9
2022-09-28T22:59:50.226Z,7.8
2022-09-28T23:03:52.676Z,7.7
2022-09-28T23:06:21.207Z,7.6
2022-09-28T23:08:22.327Z,7.6
2022-09-28T23:10:23.554Z,7.6
2022-09-28T23:12:28.024Z,7.6
2022-09-28T23:16:30.588Z,7.7
2022-09-28T23:18:31.713Z,7.7
2022-09-28T23:20:32.930Z,7.6
2022-09-28T23:22:34.171Z,7.6
2022-09-28T23:28:41.129Z,7.5
2022-09-28T23:30:42.360Z,7.5
2022-09-28T23:38:47.299Z,7.4
2022-09-28T23:40:51.844Z,7.5
2022-09-28T23:42:52.994Z,7.5
2022-09-28T23:44:54.233Z,7.5
2022-09-28T23:46:55.521Z,7.5
2022-09-28T23:48:56.694Z,7.5
2022-09-28T23:52:59.169Z,7.4
2022-09-28T23:55:03.685Z,7.5
2022-09-28T23:57:04.912Z,7.5
2022-09-28T23:59:06.138Z,7.4
